Time;durP1;ratioP1;P1;durP2;ratioP2;P2;SDS_P1;SDS_P2;PMS_P1;PMS_P2;Temp;Humidity;BMP_temperature;BMP_pressure;BME280_temperature;BME280_humidity;BME280_pressure;Samples;Min_cycle;Max_cycle;Signal;HPM_P1;HPM_P2
2021/12/08 00:01:23;;;;;;;;;13.00;13.00;;;;;;;;5229856;28;8784;-67
2021/12/08 00:03:55;;;;;;;;;27.00;26.00;;;;;;;;5161540;28;11131;-68
2021/12/08 00:06:26;;;;;;;;;19.60;19.60;;;;;;;;5162092;28;8842;-66
2021/12/08 00:09:27;;;;;;;;;6.00;6.00;;;;;;;;5228570;28;8788;-67
2021/12/08 00:14:39;;;;;;;;;26.80;26.60;;;;;;;;5229261;28;8800;-66
2021/12/08 00:17:10;;;;;;;;;25.80;24.00;;;;;;;;5211997;28;9495;-66
2021/12/08 00:19:41;;;;;;;;;23.40;23.40;;;;;;;;5228744;28;8804;-68
2021/12/08 00:22:13;;;;;;;;;24.00;24.00;;;;;;;;5228306;28;8852;-67
2021/12/08 00:24:44;;;;;;;;;31.00;29.20;;;;;;;;5211875;28;8816;-67
2021/12/08 00:27:16;;;;;;;;;22.00;22.00;;;;;;;;5228506;28;8776;-68
2021/12/08 00:29:47;;;;;;;;;30.00;28.60;;;;;;;;5227243;28;8792;-67
2021/12/08 00:32:21;;;;;;;;;15.00;15.00;;;;;;;;5229011;28;9529;-67
2021/12/08 00:34:52;;;;;;;;;9.60;9.60;;;;;;;;5212281;28;8842;-68
2021/12/08 00:37:24;;;;;;;;;9.40;9.40;;;;;;;;5211769;28;8798;-69
2021/12/08 00:39:56;;;;;;;;;6.40;6.40;;;;;;;;5228157;28;8929;-68
2021/12/08 00:42:27;;;;;;;;;6.20;6.20;;;;;;;;5211725;28;8886;-66
2021/12/08 00:44:59;;;;;;;;;3.40;3.40;;;;;;;;5212307;28;8808;-66
2021/12/08 00:47:49;;;;;;;;;4.00;4.00;;;;;;;;5218594;28;8819;-66
2021/12/08 00:50:23;;;;;;;;;4.80;4.80;;;;;;;;5228818;28;8800;-66
2021/12/08 00:52:56;;;;;;;;;9.60;9.60;;;;;;;;5228681;28;8834;-68
2021/12/08 00:55:27;;;;;;;;;7.00;7.00;;;;;;;;5161968;28;8865;-68
2021/12/08 00:57:59;;;;;;;;;3.60;3.60;;;;;;;;5228488;28;8784;-68
2021/12/08 01:00:33;;;;;;;;;10.00;9.60;;;;;;;;5211409;28;8796;-68
2021/12/08 01:03:05;;;;;;;;;4.80;4.80;;;;;;;;5211417;28;8852;-67
2021/12/08 01:05:38;;;;;;;;;7.20;7.20;;;;;;;;5228425;28;8788;-66
2021/12/08 01:08:09;;;;;;;;;3.80;3.80;;;;;;;;5229111;28;8792;-67
2021/12/08 01:10:42;;;;;;;;;1.00;1.00;;;;;;;;5211639;28;8768;-68
2021/12/08 01:13:15;;;;;;;;;7.40;7.40;;;;;;;;5227700;28;8831;-68
2021/12/08 01:15:49;;;;;;;;;10.00;9.60;;;;;;;;5228514;28;8802;-68
2021/12/08 01:18:39;;;;;;;;;4.80;4.80;;;;;;;;5214227;28;8792;-67
2021/12/08 01:21:12;;;;;;;;;4.40;4.40;;;;;;;;5227862;28;8807;-67
2021/12/08 01:23:43;;;;;;;;;3.40;3.40;;;;;;;;5211521;28;9048;-67
2021/12/08 01:26:15;;;;;;;;;5.20;5.20;;;;;;;;5227953;28;8909;-68
2021/12/08 01:28:47;;;;;;;;;3.20;3.20;;;;;;;;5228140;28;8803;-67
2021/12/08 01:31:40;;;;;;;;;4.00;4.00;;;;;;;;5161432;28;8784;-68
2021/12/08 01:34:12;;;;;;;;;11.20;11.20;;;;;;;;5211214;28;8796;-67
2021/12/08 01:36:43;;;;;;;;;4.00;4.00;;;;;;;;5228271;28;8920;-67
2021/12/08 01:39:14;;;;;;;;;5.60;5.60;;;;;;;;5195393;28;9038;-65
2021/12/08 01:41:47;;;;;;;;;6.00;6.00;;;;;;;;5230134;28;8792;-66
2021/12/08 01:47:08;;;;;;;;;5.20;5.20;;;;;;;;5231621;28;8784;-67
2021/12/08 01:49:39;;;;;;;;;7.00;7.00;;;;;;;;5215052;28;8800;-66
2021/12/08 01:52:11;;;;;;;;;13.25;13.25;;;;;;;;5198452;28;8815;-67
2021/12/08 01:54:42;;;;;;;;;15.00;15.00;;;;;;;;5164330;28;10456;-65
2021/12/08 01:57:13;;;;;;;;;4.00;4.00;;;;;;;;5231373;28;8799;-66
2021/12/08 01:59:44;;;;;;;;;2.60;1.40;;;;;;;;5214813;28;8816;-67
2021/12/08 02:02:15;;;;;;;;;3.25;3.25;;;;;;;;5214409;28;8784;-67
2021/12/08 02:04:47;;;;;;;;;3.40;3.40;;;;;;;;5214384;28;8796;-66
2021/12/08 02:07:18;;;;;;;;;5.40;4.00;;;;;;;;5231316;28;9487;-66
2021/12/08 02:09:49;;;;;;;;;17.20;17.20;;;;;;;;5214731;28;8819;-66
2021/12/08 02:12:20;;;;;;;;;19.25;18.75;;;;;;;;5231182;28;8820;-67
2021/12/08 02:14:51;;;;;;;;;16.20;16.00;;;;;;;;5214418;28;8792;-68
2021/12/08 02:17:22;;;;;;;;;12.80;12.80;;;;;;;;5230798;28;8800;-69
2021/12/08 02:19:54;;;;;;;;;4.60;4.60;;;;;;;;5231350;28;8810;-66
2021/12/08 02:22:25;;;;;;;;;5.20;5.20;;;;;;;;5230477;28;8855;-66
2021/12/08 02:24:56;;;;;;;;;1.00;1.00;;;;;;;;5231649;28;8788;-66
2021/12/08 02:27:27;;;;;;;;;1.00;1.00;;;;;;;;5231153;28;8819;-66
2021/12/08 02:30:06;;;;;;;;;7.20;5.20;;;;;;;;5230818;28;9664;-66
2021/12/08 02:49:58;;;;;;;;;3.00;3.00;;;;;;;;5163681;28;8853;-65
2021/12/08 02:52:30;;;;;;;;;0.40;0.40;;;;;;;;5162228;28;8815;-66
2021/12/08 02:55:07;;;;;;;;;1.00;1.00;;;;;;;;5163247;28;8785;-66
2021/12/08 02:57:57;;;;;;;;;1.00;1.00;;;;;;;;5217153;28;8773;-66
2021/12/08 03:00:57;;;;;;;;;0.00;0.00;;;;;;;;5230250;28;8830;-66
2021/12/08 03:03:28;;;;;;;;;1.00;0.20;;;;;;;;5230011;28;9543;-65
2021/12/08 03:05:59;;;;;;;;;3.00;3.00;;;;;;;;5163520;28;8784;-65
2021/12/08 03:08:31;;;;;;;;;0.00;0.00;;;;;;;;5229775;28;8877;-66
2021/12/08 03:11:02;;;;;;;;;1.00;1.00;;;;;;;;5213232;28;8794;-65
2021/12/08 03:13:37;;;;;;;;;1.00;1.00;;;;;;;;5229405;28;8819;-65
2021/12/08 03:16:09;;;;;;;;;1.00;1.00;;;;;;;;5163176;28;8776;-65
2021/12/08 03:18:41;;;;;;;;;1.00;1.00;;;;;;;;5213659;28;8798;-66
2021/12/08 03:21:12;;;;;;;;;1.80;1.80;;;;;;;;5162343;28;8776;-66
2021/12/08 03:23:57;;;;;;;;;2.00;2.00;;;;;;;;5162980;28;8800;-66
2021/12/08 03:26:32;;;;;;;;;3.00;3.00;;;;;;;;5162236;28;8804;-66
2021/12/08 03:29:18;;;;;;;;;6.40;6.40;;;;;;;;5212619;28;8843;-65
2021/12/08 03:31:52;;;;;;;;;10.60;10.60;;;;;;;;5229401;28;8811;-65
2021/12/08 03:34:26;;;;;;;;;10.00;10.00;;;;;;;;5162713;28;8768;-65
2021/12/08 03:37:15;;;;;;;;;16.00;15.60;;;;;;;;5162548;28;8900;-64
2021/12/08 03:39:49;;;;;;;;;9.20;9.20;;;;;;;;5229545;28;8812;-64
2021/12/08 03:42:23;;;;;;;;;7.40;7.40;;;;;;;;5229145;28;8796;-65
2021/12/08 03:44:56;;;;;;;;;6.20;6.20;;;;;;;;5162105;28;8847;-66
2021/12/08 03:47:29;;;;;;;;;17.60;13.80;;;;;;;;5228733;28;9559;-67
2021/12/08 03:50:05;;;;;;;;;80.75;65.25;;;;;;;;5228896;28;9490;-67
2021/12/08 03:52:38;;;;;;;;;70.50;55.75;;;;;;;;5228877;28;8812;-66
2021/12/08 03:55:28;;;;;;;;;77.25;55.25;;;;;;;;5219499;28;8836;-66
2021/12/08 03:57:59;;;;;;;;;58.75;52.25;;;;;;;;5229428;28;8804;-66
2021/12/08 04:00:31;;;;;;;;;43.40;43.40;;;;;;;;5228854;28;8864;-65
2021/12/08 04:03:04;;;;;;;;;36.00;34.60;;;;;;;;5161709;28;8824;-65
2021/12/08 04:05:46;;;;;;;;;34.80;34.80;;;;;;;;5211770;28;8792;-66
2021/12/08 04:08:26;;;;;;;;;33.20;32.60;;;;;;;;5162545;28;8780;-67
2021/12/08 04:10:58;;;;;;;;;16.80;15.40;;;;;;;;5228322;28;8789;-65
2021/12/08 04:13:56;;;;;;;;;38.00;32.60;;;;;;;;5259532;28;8800;-68
2021/12/08 04:16:30;;;;;;;;;118.67;89.33;;;;;;;;5245513;28;8803;-68
2021/12/08 04:19:02;;;;;;;;;74.00;58.00;;;;;;;;5232633;28;8992;-67
2021/12/08 04:21:54;;;;;;;;;17.20;17.20;;;;;;;;5267457;28;8756;-66
2021/12/08 04:24:26;;;;;;;;;22.20;21.00;;;;;;;;5232665;28;8842;-66
2021/12/08 04:27:00;;;;;;;;;48.20;45.60;;;;;;;;5232707;28;8768;-67
2021/12/08 04:29:34;;;;;;;;;17.60;17.60;;;;;;;;5249314;28;8933;-67
2021/12/08 04:32:07;;;;;;;;;13.40;12.80;;;;;;;;5215973;28;8940;-67
2021/12/08 04:34:39;;;;;;;;;20.60;20.20;;;;;;;;5267218;28;8793;-67
2021/12/08 04:37:19;;;;;;;;;16.40;14.20;;;;;;;;5249167;28;8791;-67
2021/12/08 04:40:12;;;;;;;;;21.00;21.00;;;;;;;;5232696;28;8814;-66
2021/12/08 04:43:07;;;;;;;;;22.00;21.20;;;;;;;;5262279;28;8813;-66
2021/12/08 04:45:50;;;;;;;;;20.60;20.60;;;;;;;;5212845;28;8784;-66
2021/12/08 05:03:02;;;;;;;;;28.60;28.60;;;;;;;;5282826;28;8806;-67
2021/12/08 05:08:24;;;;;;;;;30.60;30.60;;;;;;;;5266443;28;8824;-65
2021/12/08 05:10:55;;;;;;;;;20.80;20.00;;;;;;;;5248765;28;8803;-65
2021/12/08 05:13:26;;;;;;;;;10.80;10.80;;;;;;;;5248692;28;8924;-65
2021/12/08 05:15:58;;;;;;;;;9.00;9.00;;;;;;;;5250753;28;8916;-65
2021/12/08 05:18:33;;;;;;;;;14.60;14.60;;;;;;;;5252807;28;8777;-65
2021/12/08 05:21:27;;;;;;;;;18.80;18.80;;;;;;;;5271301;28;8849;-66
2021/12/08 05:24:21;;;;;;;;;9.60;9.60;;;;;;;;5270973;28;8810;-66
2021/12/08 05:26:58;;;;;;;;;10.80;10.40;;;;;;;;5272820;28;8792;-65
2021/12/08 05:29:32;;;;;;;;;21.60;21.00;;;;;;;;5291764;28;8785;-66
2021/12/08 05:32:05;;;;;;;;;8.40;8.40;;;;;;;;5242502;28;8810;-66
2021/12/08 05:34:55;;;;;;;;;16.40;16.40;;;;;;;;5270693;28;8780;-66
2021/12/08 05:37:27;;;;;;;;;20.40;19.80;;;;;;;;5270460;28;8777;-65
2021/12/08 05:39:58;;;;;;;;;15.00;15.00;;;;;;;;5237013;28;8896;-66
2021/12/08 05:42:33;;;;;;;;;12.50;12.00;;;;;;;;5270175;28;8923;-64
2021/12/08 05:45:08;;;;;;;;;19.00;18.40;;;;;;;;5270328;28;11166;-64
2021/12/08 05:47:58;;;;;;;;;9.60;9.60;;;;;;;;5255119;28;8754;-66
2021/12/08 05:54:54;;;;;;;;;9.00;9.00;;;;;;;;5270142;28;8712;-65
2021/12/08 05:57:31;;;;;;;;;21.80;21.80;;;;;;;;5251870;28;8760;-64
2021/12/08 06:00:14;;;;;;;;;21.80;21.80;;;;;;;;5252176;28;8744;-65
2021/12/08 06:07:10;;;;;;;;;9.40;9.20;;;;;;;;5269468;28;8723;-66
2021/12/08 06:10:06;;;;;;;;;9.20;9.20;;;;;;;;5269138;28;8891;-66
2021/12/08 06:12:37;;;;;;;;;5.20;4.00;;;;;;;;5210713;28;9567;-66
2021/12/08 06:19:34;;;;;;;;;15.80;14.60;;;;;;;;5152455;28;11485;-66
2021/12/08 06:22:05;;;;;;;;;23.40;22.00;;;;;;;;5164111;28;8773;-65
2021/12/08 06:29:02;;;;;;;;;22.80;20.00;;;;;;;;5161712;28;8823;-65
2021/12/08 06:36:00;;;;;;;;;17.40;15.60;;;;;;;;5163117;28;8752;-66
2021/12/08 06:38:31;;;;;;;;;14.60;11.40;;;;;;;;5231152;28;8865;-65
2021/12/08 06:41:02;;;;;;;;;6.20;6.20;;;;;;;;5163921;28;9483;-66
2021/12/08 06:43:37;;;;;;;;;12.00;12.00;;;;;;;;5164000;28;8811;-66
2021/12/08 06:46:08;;;;;;;;;14.40;12.80;;;;;;;;5163827;28;8788;-67
2021/12/08 06:48:44;;;;;;;;;7.80;7.80;;;;;;;;5230963;28;8796;-67
2021/12/08 06:51:15;;;;;;;;;9.60;8.80;;;;;;;;5230694;28;8814;-70
2021/12/08 06:53:50;;;;;;;;;14.80;14.20;;;;;;;;5213945;28;8970;-68
2021/12/08 06:56:24;;;;;;;;;11.20;11.20;;;;;;;;5230013;28;8844;-64
2021/12/08 06:58:58;;;;;;;;;9.60;9.60;;;;;;;;5229790;28;8889;-65
2021/12/08 07:04:33;;;;;;;;;5.80;5.80;;;;;;;;5230075;28;8820;-63
2021/12/08 07:07:14;;;;;;;;;10.00;9.60;;;;;;;;5230136;28;8826;-66
2021/12/08 07:09:47;;;;;;;;;9.40;9.40;;;;;;;;5162875;28;8792;-65
2021/12/08 07:12:18;;;;;;;;;12.00;11.20;;;;;;;;5208625;28;8830;-65
2021/12/08 07:15:02;;;;;;;;;1.40;1.40;;;;;;;;5250555;28;8774;-66
2021/12/08 07:17:36;;;;;;;;;9.80;9.40;;;;;;;;5217544;28;8783;-65
2021/12/08 07:22:49;;;;;;;;;16.60;12.80;;;;;;;;5268384;28;8890;-65
2021/12/08 07:25:24;;;;;;;;;19.00;18.80;;;;;;;;5268387;28;9610;-65
2021/12/08 07:27:55;;;;;;;;;10.80;10.80;;;;;;;;5233968;28;8779;-65
2021/12/08 07:30:47;;;;;;;;;15.20;15.00;;;;;;;;5268441;28;8782;-66
2021/12/08 07:33:18;;;;;;;;;17.40;17.40;;;;;;;;5250234;28;9511;-65
2021/12/08 07:35:51;;;;;;;;;14.20;13.00;;;;;;;;5250204;28;8766;-65
2021/12/08 07:38:25;;;;;;;;;14.20;14.20;;;;;;;;5249453;28;8881;-65
2021/12/08 07:41:11;;;;;;;;;14.60;14.60;;;;;;;;5249960;28;8782;-66
2021/12/08 07:43:45;;;;;;;;;12.00;12.00;;;;;;;;5250663;28;8803;-65
2021/12/08 07:46:37;;;;;;;;;11.20;10.60;;;;;;;;5250456;28;8855;-66
2021/12/08 07:49:20;;;;;;;;;9.00;9.00;;;;;;;;5250274;28;9550;-66
2021/12/08 07:51:52;;;;;;;;;7.00;7.00;;;;;;;;5249871;28;8893;-66
2021/12/08 07:54:24;;;;;;;;;8.20;7.20;;;;;;;;5268172;28;8805;-66
2021/12/08 07:56:57;;;;;;;;;14.60;13.00;;;;;;;;5267926;28;9473;-67
2021/12/08 07:59:32;;;;;;;;;7.40;7.40;;;;;;;;5250839;28;8778;-67
2021/12/08 08:02:07;;;;;;;;;18.00;16.40;;;;;;;;5249668;28;8783;-66
2021/12/08 08:04:39;;;;;;;;;12.00;12.00;;;;;;;;5249968;28;8809;-66
2021/12/08 08:07:11;;;;;;;;;12.00;11.20;;;;;;;;5233762;28;8767;-67
2021/12/08 08:09:43;;;;;;;;;11.60;11.00;;;;;;;;5283483;28;8782;-66
2021/12/08 08:12:35;;;;;;;;;10.40;10.40;;;;;;;;5252097;28;8798;-65
2021/12/08 08:15:11;;;;;;;;;18.40;17.00;;;;;;;;5267727;28;8783;-65
2021/12/08 08:17:44;;;;;;;;;20.80;20.80;;;;;;;;5233299;28;8775;-64
2021/12/08 08:20:19;;;;;;;;;11.20;11.20;;;;;;;;5232893;28;8880;-65
2021/12/08 08:22:50;;;;;;;;;8.60;8.60;;;;;;;;5233037;28;9587;-64
2021/12/08 08:25:23;;;;;;;;;45.20;43.00;;;;;;;;5266961;28;8775;-64
2021/12/08 08:27:54;;;;;;;;;23.40;19.40;;;;;;;;5267212;28;8786;-65
2021/12/08 08:30:27;;;;;;;;;15.60;15.60;;;;;;;;5232812;28;8779;-64
2021/12/08 08:32:58;;;;;;;;;21.60;21.40;;;;;;;;5232635;28;8806;-64
2021/12/08 08:35:32;;;;;;;;;14.60;14.60;;;;;;;;5249442;28;8857;-64
2021/12/08 08:38:05;;;;;;;;;9.80;9.80;;;;;;;;5232759;28;8801;-65
2021/12/08 08:40:42;;;;;;;;;15.00;14.60;;;;;;;;5248995;28;8932;-65
2021/12/08 08:43:15;;;;;;;;;9.80;8.20;;;;;;;;5249486;28;8814;-65
2021/12/08 08:45:57;;;;;;;;;13.40;13.00;;;;;;;;5248954;28;8795;-66
2021/12/08 08:48:30;;;;;;;;;12.40;7.40;;;;;;;;5232690;28;8789;-65
2021/12/08 08:51:01;;;;;;;;;8.20;8.20;;;;;;;;5233596;28;8782;-65
2021/12/08 08:53:34;;;;;;;;;7.00;5.00;;;;;;;;5254027;28;8801;-66
2021/12/08 08:56:16;;;;;;;;;13.00;12.00;;;;;;;;5219844;28;8797;-65
2021/12/08 08:58:53;;;;;;;;;7.80;7.80;;;;;;;;5253316;28;8790;-65
2021/12/08 09:01:27;;;;;;;;;15.00;12.60;;;;;;;;5271715;28;8797;-65
2021/12/08 09:04:04;;;;;;;;;12.00;11.20;;;;;;;;5271666;28;8826;-65
2021/12/08 09:06:39;;;;;;;;;15.80;15.60;;;;;;;;5220408;28;9426;-65
2021/12/08 09:09:16;;;;;;;;;10.40;10.00;;;;;;;;5219299;28;8793;-64
2021/12/08 09:11:50;;;;;;;;;18.40;16.80;;;;;;;;5271441;28;8794;-64
2021/12/08 09:14:25;;;;;;;;;10.40;10.40;;;;;;;;5236425;28;8779;-64
2021/12/08 09:17:08;;;;;;;;;9.80;9.80;;;;;;;;5236409;28;8802;-64
2021/12/08 09:19:43;;;;;;;;;26.40;25.40;;;;;;;;5252920;28;8824;-65
2021/12/08 09:22:30;;;;;;;;;11.20;11.20;;;;;;;;5253084;28;8787;-66
2021/12/08 09:25:01;;;;;;;;;12.20;12.20;;;;;;;;5236620;28;8905;-65
2021/12/08 09:27:35;;;;;;;;;20.40;18.80;;;;;;;;5252582;28;8782;-64
2021/12/08 09:30:12;;;;;;;;;12.00;12.00;;;;;;;;5252979;28;8836;-63
2021/12/08 09:32:45;;;;;;;;;15.20;15.20;;;;;;;;5270820;28;8934;-66
2021/12/08 09:35:19;;;;;;;;;16.00;15.00;;;;;;;;5236067;28;8790;-65
2021/12/08 09:37:52;;;;;;;;;20.20;19.40;;;;;;;;5271427;28;8782;-65
2021/12/08 09:40:37;;;;;;;;;21.60;19.80;;;;;;;;5270502;28;8850;-64
2021/12/08 09:43:28;;;;;;;;;15.60;14.40;;;;;;;;5253236;28;8794;-66
2021/12/08 09:46:01;;;;;;;;;16.00;16.00;;;;;;;;5270087;28;8791;-66
2021/12/08 09:48:33;;;;;;;;;15.80;15.80;;;;;;;;5236002;28;8801;-64
2021/12/08 09:51:24;;;;;;;;;14.60;14.60;;;;;;;;5255200;28;9417;-65
2021/12/08 09:54:13;;;;;;;;;13.00;12.20;;;;;;;;5270874;28;8758;-64
2021/12/08 09:56:46;;;;;;;;;12.75;12.75;;;;;;;;5270006;28;9524;-65
2021/12/08 09:59:17;;;;;;;;;10.80;10.80;;;;;;;;5270121;28;8790;-65
2021/12/08 10:01:50;;;;;;;;;13.00;13.00;;;;;;;;5285599;28;8779;-64
2021/12/08 10:04:21;;;;;;;;;14.20;14.20;;;;;;;;5218489;28;11492;-64
2021/12/08 10:06:57;;;;;;;;;6.00;6.00;;;;;;;;5270124;28;8775;-65
2021/12/08 10:09:28;;;;;;;;;18.80;18.80;;;;;;;;5235506;28;8779;-65
2021/12/08 10:12:01;;;;;;;;;14.25;14.25;;;;;;;;5270092;28;9494;-65
2021/12/08 10:14:31;;;;;;;;;12.20;12.20;;;;;;;;5251444;28;11501;-65
2021/12/08 10:17:02;;;;;;;;;19.00;18.75;;;;;;;;5251853;28;8775;-66
2021/12/08 10:19:33;;;;;;;;;11.60;11.60;;;;;;;;5269560;28;8762;-65
2021/12/08 10:22:04;;;;;;;;;12.00;12.00;;;;;;;;5252046;28;8832;-66
2021/12/08 10:24:35;;;;;;;;;13.00;12.25;;;;;;;;5269661;28;8807;-66
2021/12/08 10:27:07;;;;;;;;;15.20;15.20;;;;;;;;5269710;28;8940;-65
2021/12/08 10:29:38;;;;;;;;;11.00;11.00;;;;;;;;5235098;28;9476;-65
2021/12/08 10:32:14;;;;;;;;;9.50;9.25;;;;;;;;5270261;28;8923;-66
2021/12/08 10:35:02;;;;;;;;;16.00;16.00;;;;;;;;5218467;28;8847;-64
2021/12/08 10:37:34;;;;;;;;;6.00;6.00;;;;;;;;5235309;28;8782;-64
2021/12/08 10:40:08;;;;;;;;;12.00;12.00;;;;;;;;5269739;28;8812;-65
2021/12/08 10:42:39;;;;;;;;;17.80;17.80;;;;;;;;5218247;28;8868;-65
2021/12/08 10:45:21;;;;;;;;;19.75;19.25;;;;;;;;5251623;28;8771;-64
2021/12/08 10:47:55;;;;;;;;;15.80;15.80;;;;;;;;5251600;28;8766;-64
2021/12/08 10:56:15;;;;;;;;;19.40;19.20;;;;;;;;5269120;28;8770;-64
2021/12/08 10:58:50;;;;;;;;;24.80;24.80;;;;;;;;5234153;28;8790;-64
2021/12/08 11:01:39;;;;;;;;;25.20;24.60;;;;;;;;5253919;28;8767;-64
2021/12/08 11:04:12;;;;;;;;;16.50;16.25;;;;;;;;5251985;28;8817;-64
2021/12/08 11:06:43;;;;;;;;;24.60;24.60;;;;;;;;5268890;28;11432;-64
2021/12/08 11:09:16;;;;;;;;;3.60;2.80;;;;;;;;5268588;28;8771;-64
2021/12/08 11:11:48;;;;;;;;;32.60;30.20;;;;;;;;5250085;28;8992;-65
2021/12/08 11:14:19;;;;;;;;;18.40;18.00;;;;;;;;5233284;28;8774;-65
2021/12/08 11:16:50;;;;;;;;;16.75;15.50;;;;;;;;5250567;28;8783;-65
2021/12/08 11:19:22;;;;;;;;;21.25;21.00;;;;;;;;5268436;28;8793;-65
2021/12/08 11:21:56;;;;;;;;;16.00;16.00;;;;;;;;5250862;28;8782;-65
2021/12/08 11:24:45;;;;;;;;;20.80;20.20;;;;;;;;5250845;28;8806;-65
2021/12/08 11:27:30;;;;;;;;;19.20;18.80;;;;;;;;5250924;28;8778;-65
2021/12/08 11:30:14;;;;;;;;;16.80;16.80;;;;;;;;5217128;28;8916;-65
2021/12/08 11:32:46;;;;;;;;;19.20;17.60;;;;;;;;5268636;28;9634;-64
2021/12/08 11:35:19;;;;;;;;;28.00;27.00;;;;;;;;5233654;28;8811;-65
2021/12/08 11:37:58;;;;;;;;;25.80;24.80;;;;;;;;5250413;28;8759;-65
2021/12/08 11:40:33;;;;;;;;;21.60;21.40;;;;;;;;5268049;28;8779;-64
2021/12/08 11:43:28;;;;;;;;;22.40;21.40;;;;;;;;5253022;28;8791;-65
2021/12/08 11:46:12;;;;;;;;;27.40;24.80;;;;;;;;5233386;28;8767;-65
2021/12/08 11:48:59;;;;;;;;;24.80;23.60;;;;;;;;5250474;28;8855;-65
2021/12/08 11:51:48;;;;;;;;;27.80;27.00;;;;;;;;5268841;28;8782;-65
2021/12/08 11:54:54;;;;;;;;;18.80;17.80;;;;;;;;5268263;28;8787;-66
2021/12/08 11:57:30;;;;;;;;;18.20;16.40;;;;;;;;5249809;28;8767;-65
2021/12/08 12:00:24;;;;;;;;;10.40;10.00;;;;;;;;5252808;28;8805;-67
2021/12/08 12:02:57;;;;;;;;;24.40;24.40;;;;;;;;5250423;28;8802;-64
2021/12/08 12:05:30;;;;;;;;;25.80;24.60;;;;;;;;5232564;28;8897;-64
2021/12/08 12:08:03;;;;;;;;;20.40;18.20;;;;;;;;5233083;28;8813;-65
2021/12/08 12:10:36;;;;;;;;;18.20;16.80;;;;;;;;5267361;28;8779;-64
2021/12/08 12:13:11;;;;;;;;;18.40;18.40;;;;;;;;5212076;28;8824;-65
2021/12/08 12:15:46;;;;;;;;;17.00;17.00;;;;;;;;5228747;28;9471;-65
2021/12/08 12:18:18;;;;;;;;;12.20;12.20;;;;;;;;5213011;28;9285;-64
2021/12/08 12:20:59;;;;;;;;;11.20;10.80;;;;;;;;5212099;28;8815;-65
2021/12/08 12:23:42;;;;;;;;;14.60;14.20;;;;;;;;5212177;28;8851;-65
2021/12/08 12:26:34;;;;;;;;;17.20;16.80;;;;;;;;5196345;28;8749;-65
2021/12/08 12:29:21;;;;;;;;;19.00;17.20;;;;;;;;5211945;28;8788;-65
2021/12/08 12:31:52;;;;;;;;;18.00;18.00;;;;;;;;5212411;28;8804;-65
2021/12/08 12:34:40;;;;;;;;;19.50;18.50;;;;;;;;5161090;28;8804;-64
2021/12/08 12:37:17;;;;;;;;;26.00;25.20;;;;;;;;5205948;28;9969;-64
2021/12/08 12:39:53;;;;;;;;;24.75;24.50;;;;;;;;5215686;28;8920;-65
2021/12/08 12:42:26;;;;;;;;;20.20;20.20;;;;;;;;5228627;28;8802;-65
2021/12/08 12:44:56;;;;;;;;;29.40;28.80;;;;;;;;5228543;28;9650;-65
2021/12/08 12:47:30;;;;;;;;;23.50;22.50;;;;;;;;5211553;28;8932;-65
2021/12/08 12:50:04;;;;;;;;;18.20;18.20;;;;;;;;5161839;28;11624;-65
2021/12/08 12:52:42;;;;;;;;;22.80;20.00;;;;;;;;5211406;28;8777;-65
2021/12/08 12:55:16;;;;;;;;;42.60;40.20;;;;;;;;5161542;28;8895;-64
2021/12/08 12:58:05;;;;;;;;;24.60;23.40;;;;;;;;5207273;28;9534;-65
2021/12/08 13:00:41;;;;;;;;;26.00;25.50;;;;;;;;5176536;28;8797;-65
2021/12/08 13:03:31;;;;;;;;;25.80;24.20;;;;;;;;5215487;28;8885;-67
2021/12/08 13:06:05;;;;;;;;;20.60;20.20;;;;;;;;5233502;28;8789;-65
2021/12/08 13:08:51;;;;;;;;;20.40;20.40;;;;;;;;5215413;28;8816;-65
2021/12/08 13:11:22;;;;;;;;;34.40;33.40;;;;;;;;5254350;28;8797;-66
2021/12/08 13:13:54;;;;;;;;;27.00;26.50;;;;;;;;5269811;28;8768;-66
2021/12/08 13:16:26;;;;;;;;;26.20;25.40;;;;;;;;5240249;28;11055;-66
2021/12/08 13:18:59;;;;;;;;;24.00;24.00;;;;;;;;5211063;28;8777;-65
2021/12/08 13:21:37;;;;;;;;;24.40;24.40;;;;;;;;5246194;28;8785;-65
2021/12/08 13:24:30;;;;;;;;;27.80;27.80;;;;;;;;5228385;28;8804;-65
2021/12/08 13:27:03;;;;;;;;;22.80;21.20;;;;;;;;5245682;28;8789;-64
2021/12/08 13:29:36;;;;;;;;;26.20;22.80;;;;;;;;5246099;28;8772;-66
2021/12/08 13:32:12;;;;;;;;;21.40;19.40;;;;;;;;5196155;28;8800;-65
2021/12/08 13:35:02;;;;;;;;;18.60;18.40;;;;;;;;5244838;28;8903;-65
2021/12/08 13:37:33;;;;;;;;;24.80;24.80;;;;;;;;5266295;28;8774;-65
2021/12/08 13:40:08;;;;;;;;;23.20;23.20;;;;;;;;5218816;28;8803;-65
2021/12/08 13:42:50;;;;;;;;;23.60;23.60;;;;;;;;5219112;28;8764;-65
2021/12/08 13:45:21;;;;;;;;;15.40;15.20;;;;;;;;5252438;28;8763;-65
2021/12/08 13:48:03;;;;;;;;;17.00;17.00;;;;;;;;5270195;28;9487;-65
2021/12/08 13:50:35;;;;;;;;;31.00;30.20;;;;;;;;5219321;28;8895;-65
2021/12/08 13:53:10;;;;;;;;;25.80;24.80;;;;;;;;5218824;28;8800;-65
2021/12/08 13:55:43;;;;;;;;;36.80;34.80;;;;;;;;5218797;28;8787;-65
2021/12/08 13:58:16;;;;;;;;;37.40;36.80;;;;;;;;5219196;28;8764;-64
2021/12/08 14:00:48;;;;;;;;;32.60;32.60;;;;;;;;5270616;28;8792;-64
2021/12/08 14:03:24;;;;;;;;;18.60;18.60;;;;;;;;5252260;28;8796;-64
2021/12/08 14:05:57;;;;;;;;;21.20;21.00;;;;;;;;5219097;28;8768;-66
2021/12/08 14:08:28;;;;;;;;;30.80;28.60;;;;;;;;5252026;28;8821;-66
2021/12/08 14:11:10;;;;;;;;;29.25;28.00;;;;;;;;5269580;28;8769;-66
2021/12/08 14:13:45;;;;;;;;;36.00;35.40;;;;;;;;5269435;28;8857;-65
2021/12/08 14:16:17;;;;;;;;;46.20;40.20;;;;;;;;5269505;28;8780;-65
2021/12/08 14:18:50;;;;;;;;;88.75;68.50;;;;;;;;5217916;28;8784;-64
2021/12/08 14:21:41;;;;;;;;;27.80;27.80;;;;;;;;5254687;28;8851;-64
2021/12/08 14:27:33;;;;;;;;;28.00;27.40;;;;;;;;5231093;28;8893;-64
2021/12/08 14:30:04;;;;;;;;;27.25;26.50;;;;;;;;5230976;28;8950;-64
2021/12/08 14:32:38;;;;;;;;;23.80;23.80;;;;;;;;5230535;28;8780;-65
2021/12/08 14:35:10;;;;;;;;;26.80;24.80;;;;;;;;5230339;28;8789;-65
2021/12/08 14:37:41;;;;;;;;;31.75;30.75;;;;;;;;5248769;28;8769;-65
2021/12/08 14:40:12;;;;;;;;;36.50;33.50;;;;;;;;5248441;28;11524;-65
2021/12/08 14:42:43;;;;;;;;;36.60;34.00;;;;;;;;5213692;28;8777;-64
2021/12/08 14:45:14;;;;;;;;;33.50;31.75;;;;;;;;5248102;28;8785;-64
2021/12/08 14:48:03;;;;;;;;;26.60;24.40;;;;;;;;5229906;28;9508;-64
2021/12/08 14:50:34;;;;;;;;;31.75;30.75;;;;;;;;5247711;28;8785;-64
2021/12/08 14:53:12;;;;;;;;;31.75;31.75;;;;;;;;5229875;28;8792;-64
2021/12/08 14:55:43;;;;;;;;;29.00;28.00;;;;;;;;5213715;28;8777;-64
2021/12/08 14:58:32;;;;;;;;;33.80;32.60;;;;;;;;5230772;28;8887;-64
2021/12/08 15:01:05;;;;;;;;;40.75;38.75;;;;;;;;5248447;28;8915;-65
2021/12/08 15:03:46;;;;;;;;;31.80;31.40;;;;;;;;5213066;28;8808;-65
2021/12/08 15:06:18;;;;;;;;;30.40;26.20;;;;;;;;5231161;28;8819;-65
2021/12/08 15:08:50;;;;;;;;;30.60;27.40;;;;;;;;5229975;28;8906;-66
2021/12/08 15:11:26;;;;;;;;;18.40;18.40;;;;;;;;5213049;28;8780;-65
2021/12/08 15:14:16;;;;;;;;;39.00;35.60;;;;;;;;5232891;28;9525;-66
2021/12/08 15:16:51;;;;;;;;;31.00;31.00;;;;;;;;5213024;28;8832;-65
2021/12/08 15:19:22;;;;;;;;;22.00;22.00;;;;;;;;5230321;28;8769;-64
2021/12/08 15:22:03;;;;;;;;;23.20;22.80;;;;;;;;5212695;28;8793;-65
2021/12/08 15:24:34;;;;;;;;;31.40;31.40;;;;;;;;5247611;28;8788;-65
2021/12/08 15:27:13;;;;;;;;;37.00;36.00;;;;;;;;5247678;28;8775;-64
2021/12/08 15:30:03;;;;;;;;;39.60;37.80;;;;;;;;5232785;28;8788;-68
2021/12/08 15:32:34;;;;;;;;;42.80;38.40;;;;;;;;5212756;28;8878;-65
2021/12/08 15:35:07;;;;;;;;;38.50;32.25;;;;;;;;5247232;28;8776;-65
2021/12/08 15:37:52;;;;;;;;;30.20;30.20;;;;;;;;5212658;28;11138;-66
2021/12/08 15:40:36;;;;;;;;;19.00;18.60;;;;;;;;5245915;28;8785;-66
2021/12/08 15:43:08;;;;;;;;;37.60;37.00;;;;;;;;5212710;28;8800;-66
2021/12/08 15:45:40;;;;;;;;;32.20;32.20;;;;;;;;5247485;28;8773;-67
2021/12/08 15:48:17;;;;;;;;;30.60;28.40;;;;;;;;5212876;28;8804;-66
2021/12/08 15:50:50;;;;;;;;;27.00;27.00;;;;;;;;5212639;28;8753;-66
2021/12/08 15:53:22;;;;;;;;;21.00;21.00;;;;;;;;5212496;28;8785;-67
2021/12/08 15:56:01;;;;;;;;;37.20;36.00;;;;;;;;5246702;28;8789;-67
2021/12/08 15:58:51;;;;;;;;;27.80;25.60;;;;;;;;5232844;28;8772;-65
2021/12/08 16:01:24;;;;;;;;;27.80;26.20;;;;;;;;5246801;28;8783;-65
2021/12/08 16:03:59;;;;;;;;;33.20;32.40;;;;;;;;5246750;28;8927;-65
2021/12/08 16:06:37;;;;;;;;;31.60;31.60;;;;;;;;5213054;28;8769;-65
2021/12/08 16:09:16;;;;;;;;;40.00;39.20;;;;;;;;5212534;28;8788;-65
2021/12/08 16:11:48;;;;;;;;;42.40;40.80;;;;;;;;5229211;28;8781;-65
2021/12/08 16:14:32;;;;;;;;;44.20;42.60;;;;;;;;5247063;28;8856;-65
2021/12/08 16:17:23;;;;;;;;;41.60;39.40;;;;;;;;5211792;28;9512;-66
2021/12/08 16:20:03;;;;;;;;;26.40;26.40;;;;;;;;5229150;28;8863;-65
2021/12/08 16:22:38;;;;;;;;;41.20;40.20;;;;;;;;5228462;28;8777;-66
2021/12/08 16:25:10;;;;;;;;;28.40;28.40;;;;;;;;5245052;28;8781;-66
2021/12/08 16:27:41;;;;;;;;;23.80;23.80;;;;;;;;5228251;28;8784;-66
2021/12/08 16:30:12;;;;;;;;;25.00;24.25;;;;;;;;5246401;28;8803;-66
2021/12/08 16:33:03;;;;;;;;;23.40;20.80;;;;;;;;5228935;28;9550;-66
2021/12/08 16:35:34;;;;;;;;;27.60;26.80;;;;;;;;5212175;28;8791;-65
2021/12/08 16:38:06;;;;;;;;;32.20;28.40;;;;;;;;5211676;28;8792;-65
2021/12/08 16:43:17;;;;;;;;;31.60;28.40;;;;;;;;5228674;28;8809;-65
2021/12/08 16:45:52;;;;;;;;;35.60;35.60;;;;;;;;5228944;28;8765;-65
2021/12/08 16:48:24;;;;;;;;;60.00;50.80;;;;;;;;5211812;28;8826;-65